RYR1962 LDZD-EDJA
Flight info
| Callsign | RYR1962 |
|---|---|
| Flight time | N/A |
| Altitude | 36000 |
| Route | RAVNA DCT USELU DCT VEKEN DCT ERKIR L608 KPT KPT1C |
| Aircraft | B738/M-SDE3FGILRWY/SB1 |
Departure
| Time | N/A |
|---|---|
| Airport | Zadar Airport (LDZD) |
Arrival
| Time | 2026-04-09 12:22 |
|---|---|
| Airport | Memmingen Allgau Airport (EDJA) |
| Time | Latitude | Longitude | Altitude | Speed | Heading |
|---|---|---|---|---|---|
| 2026-04-09 11:51 | 46.91689 | 12.89019 | 37951 ft | 375 kts | 316° |
| 2026-04-09 11:51 | 46.93578 | 12.86371 | 37426 ft | 372 kts | 317° |
| 2026-04-09 11:51 | 46.95445 | 12.83783 | 37003 ft | 367 kts | 317° |
| 2026-04-09 11:52 | 46.97289 | 12.81228 | 36711 ft | 366 kts | 317° |
| 2026-04-09 11:52 | 46.98988 | 12.78868 | 36356 ft | 371 kts | 317° |
| 2026-04-09 11:52 | 47.00860 | 12.76259 | 36034 ft | 370 kts | 316° |
| 2026-04-09 11:52 | 47.02706 | 12.73676 | 35710 ft | 365 kts | 316° |
| 2026-04-09 11:53 | 47.04529 | 12.71118 | 35362 ft | 361 kts | 316° |
| 2026-04-09 11:53 | 47.06331 | 12.68585 | 35033 ft | 356 kts | 316° |
| 2026-04-09 11:53 | 47.08107 | 12.66086 | 34710 ft | 351 kts | 316° |
| 2026-04-09 11:53 | 47.09861 | 12.63614 | 34360 ft | 348 kts | 316° |
| 2026-04-09 11:54 | 47.11596 | 12.61166 | 34069 ft | 345 kts | 317° |
| 2026-04-09 11:54 | 47.12740 | 12.59551 | 33812 ft | 342 kts | 317° |
| 2026-04-09 11:54 | 47.15007 | 12.56348 | 33386 ft | 336 kts | 317° |
| 2026-04-09 11:54 | 47.16672 | 12.53992 | 33095 ft | 330 kts | 317° |
| 2026-04-09 11:55 | 47.17769 | 12.52440 | 32869 ft | 330 kts | 317° |
| 2026-04-09 11:55 | 47.19431 | 12.50086 | 32578 ft | 336 kts | 317° |
| 2026-04-09 11:55 | 47.21124 | 12.47686 | 32268 ft | 338 kts | 317° |
| 2026-04-09 11:55 | 47.22803 | 12.45303 | 31913 ft | 332 kts | 317° |
| 2026-04-09 11:56 | 47.24455 | 12.42956 | 31626 ft | 328 kts | 316° |
| 2026-04-09 11:56 | 47.26085 | 12.40638 | 31324 ft | 325 kts | 316° |
| 2026-04-09 11:56 | 47.27714 | 12.38319 | 31017 ft | 327 kts | 316° |
| 2026-04-09 11:56 | 47.29363 | 12.35970 | 30678 ft | 333 kts | 316° |
| 2026-04-09 11:57 | 47.31017 | 12.33612 | 30387 ft | 329 kts | 316° |
| 2026-04-09 11:57 | 47.32651 | 12.31280 | 30053 ft | 325 kts | 316° |
| 2026-04-09 11:57 | 47.34261 | 12.28979 | 29733 ft | 320 kts | 316° |
| 2026-04-09 11:57 | 47.35849 | 12.26709 | 29419 ft | 317 kts | 317° |
| 2026-04-09 11:58 | 47.37416 | 12.24466 | 29106 ft | 312 kts | 317° |
| 2026-04-09 11:58 | 47.38956 | 12.22260 | 28786 ft | 313 kts | 317° |
| 2026-04-09 11:58 | 47.40532 | 12.20002 | 28483 ft | 319 kts | 317° |
| 2026-04-09 11:58 | 47.42126 | 12.17716 | 28154 ft | 319 kts | 317° |
| 2026-04-09 11:59 | 47.43727 | 12.15416 | 27831 ft | 315 kts | 317° |
| 2026-04-09 11:59 | 47.45263 | 12.13207 | 27519 ft | 311 kts | 316° |
| 2026-04-09 11:59 | 47.46804 | 12.10990 | 27207 ft | 308 kts | 317° |
| 2026-04-09 11:59 | 47.48332 | 12.08791 | 26892 ft | 306 kts | 317° |
| 2026-04-09 12:00 | 47.49857 | 12.06595 | 26594 ft | 307 kts | 317° |
| 2026-04-09 12:00 | 47.51397 | 12.04375 | 26246 ft | 311 kts | 316° |
| 2026-04-09 12:00 | 47.52774 | 12.01906 | 25917 ft | 313 kts | 304° |
| 2026-04-09 12:00 | 47.53813 | 11.99073 | 25615 ft | 313 kts | 297° |
| 2026-04-09 12:01 | 47.54528 | 11.96034 | 25366 ft | 313 kts | 288° |
| 2026-04-09 12:01 | 47.55001 | 11.92901 | 25127 ft | 309 kts | 287° |
| 2026-04-09 12:01 | 47.55422 | 11.89786 | 24869 ft | 310 kts | 286° |
| 2026-04-09 12:01 | 47.55842 | 11.86635 | 24655 ft | 315 kts | 286° |
| 2026-04-09 12:02 | 47.56274 | 11.83424 | 24425 ft | 319 kts | 286° |
| 2026-04-09 12:02 | 47.56708 | 11.80212 | 24200 ft | 317 kts | 286° |
| 2026-04-09 12:02 | 47.57143 | 11.77018 | 23941 ft | 316 kts | 286° |
| 2026-04-09 12:02 | 47.57579 | 11.73836 | 23700 ft | 316 kts | 286° |
| 2026-04-09 12:03 | 47.58015 | 11.70661 | 23422 ft | 312 kts | 286° |
| 2026-04-09 12:03 | 47.58443 | 11.67541 | 23099 ft | 306 kts | 286° |
| 2026-04-09 12:03 | 47.58863 | 11.64470 | 22790 ft | 304 kts | 286° |
| 2026-04-09 12:03 | 47.59285 | 11.61397 | 22438 ft | 304 kts | 286° |
| 2026-04-09 12:04 | 47.59705 | 11.58339 | 22120 ft | 304 kts | 286° |
| 2026-04-09 12:04 | 47.60127 | 11.55259 | 21804 ft | 306 kts | 286° |
| 2026-04-09 12:04 | 47.60550 | 11.52165 | 21503 ft | 304 kts | 286° |
| 2026-04-09 12:04 | 47.60967 | 11.49098 | 21142 ft | 303 kts | 286° |
| 2026-04-09 12:05 | 47.61381 | 11.46049 | 20808 ft | 301 kts | 286° |
| 2026-04-09 12:05 | 47.61792 | 11.43018 | 20487 ft | 299 kts | 286° |
| 2026-04-09 12:05 | 47.62201 | 11.39992 | 20177 ft | 301 kts | 285° |
| 2026-04-09 12:05 | 47.62597 | 11.36905 | 19632 ft | 307 kts | 284° |
| 2026-04-09 12:06 | 47.62976 | 11.33810 | 19329 ft | 305 kts | 284° |
| 2026-04-09 12:06 | 47.63350 | 11.30723 | 18987 ft | 303 kts | 284° |
| 2026-04-09 12:06 | 47.63719 | 11.27660 | 18667 ft | 301 kts | 284° |
| 2026-04-09 12:06 | 47.64086 | 11.24609 | 18341 ft | 299 kts | 284° |
| 2026-04-09 12:07 | 47.64451 | 11.21580 | 17981 ft | 298 kts | 284° |
| 2026-04-09 12:07 | 47.64812 | 11.18581 | 17660 ft | 294 kts | 284° |
| 2026-04-09 12:07 | 47.65170 | 11.15607 | 17349 ft | 291 kts | 284° |
| 2026-04-09 12:07 | 47.65523 | 11.12672 | 17026 ft | 288 kts | 284° |
| 2026-04-09 12:08 | 47.65873 | 11.09760 | 16721 ft | 285 kts | 284° |
| 2026-04-09 12:08 | 47.66214 | 11.06918 | 16432 ft | 283 kts | 284° |
| 2026-04-09 12:08 | 47.66559 | 11.04039 | 16125 ft | 283 kts | 284° |
| 2026-04-09 12:08 | 47.66903 | 11.01164 | 15806 ft | 283 kts | 284° |
| 2026-04-09 12:09 | 47.67246 | 10.98295 | 15495 ft | 282 kts | 284° |
| 2026-04-09 12:09 | 47.67586 | 10.95435 | 15182 ft | 281 kts | 283° |
| 2026-04-09 12:09 | 47.67923 | 10.92597 | 14887 ft | 279 kts | 283° |
| 2026-04-09 12:09 | 47.68258 | 10.89770 | 14593 ft | 277 kts | 283° |
| 2026-04-09 12:10 | 47.68589 | 10.86961 | 14306 ft | 276 kts | 283° |
| 2026-04-09 12:10 | 47.68919 | 10.84167 | 14011 ft | 276 kts | 283° |
| 2026-04-09 12:10 | 47.69249 | 10.81368 | 13699 ft | 278 kts | 283° |
| 2026-04-09 12:10 | 47.69582 | 10.78534 | 13364 ft | 277 kts | 283° |
| 2026-04-09 12:11 | 47.69911 | 10.75729 | 13050 ft | 275 kts | 283° |
| 2026-04-09 12:11 | 47.70237 | 10.72934 | 12754 ft | 273 kts | 283° |
| 2026-04-09 12:11 | 47.70559 | 10.70167 | 12452 ft | 271 kts | 283° |
| 2026-04-09 12:11 | 47.70879 | 10.67421 | 12164 ft | 269 kts | 282° |
| 2026-04-09 12:12 | 47.71195 | 10.64693 | 11870 ft | 268 kts | 282° |
| 2026-04-09 12:12 | 47.71510 | 10.61978 | 11582 ft | 266 kts | 282° |
| 2026-04-09 12:12 | 47.71822 | 10.59279 | 11291 ft | 264 kts | 282° |
| 2026-04-09 12:12 | 47.72131 | 10.56600 | 11009 ft | 263 kts | 282° |
| 2026-04-09 12:13 | 47.72440 | 10.53919 | 10719 ft | 265 kts | 282° |
| 2026-04-09 12:13 | 47.72754 | 10.51194 | 10441 ft | 269 kts | 282° |
| 2026-04-09 12:13 | 47.73067 | 10.48464 | 10253 ft | 264 kts | 282° |
| 2026-04-09 12:13 | 47.73370 | 10.45809 | 10047 ft | 260 kts | 282° |
| 2026-04-09 12:14 | 47.73674 | 10.43159 | 9742 ft | 259 kts | 281° |
| 2026-04-09 12:14 | 47.73966 | 10.40588 | 9461 ft | 258 kts | 281° |
| 2026-04-09 12:14 | 47.74264 | 10.37969 | 9174 ft | 257 kts | 281° |
| 2026-04-09 12:14 | 47.74563 | 10.35361 | 8887 ft | 255 kts | 282° |
| 2026-04-09 12:15 | 47.75056 | 10.32842 | 8574 ft | 254 kts | 291° |
| 2026-04-09 12:15 | 47.75712 | 10.30407 | 8302 ft | 253 kts | 292° |
| 2026-04-09 12:15 | 47.76381 | 10.27991 | 8026 ft | 253 kts | 292° |
| 2026-04-09 12:15 | 47.77041 | 10.25580 | 7745 ft | 252 kts | 292° |
| 2026-04-09 12:16 | 47.77690 | 10.23169 | 7460 ft | 250 kts | 291° |
| 2026-04-09 12:16 | 47.78327 | 10.20774 | 7194 ft | 248 kts | 291° |
| 2026-04-09 12:16 | 47.78956 | 10.18389 | 6930 ft | 247 kts | 291° |
| 2026-04-09 12:16 | 47.79579 | 10.16008 | 6645 ft | 247 kts | 291° |
| 2026-04-09 12:17 | 47.80202 | 10.13620 | 6356 ft | 249 kts | 291° |
| 2026-04-09 12:17 | 47.80824 | 10.11236 | 6192 ft | 243 kts | 291° |
| 2026-04-09 12:17 | 47.81660 | 10.09106 | 6043 ft | 238 kts | 315° |
| 2026-04-09 12:17 | 47.82955 | 10.07628 | 5970 ft | 234 kts | 327° |
| 2026-04-09 12:18 | 47.84354 | 10.06406 | 5877 ft | 232 kts | 328° |
| 2026-04-09 12:18 | 47.85739 | 10.05220 | 5749 ft | 226 kts | 328° |
| 2026-04-09 12:18 | 47.87095 | 10.04045 | 5523 ft | 225 kts | 328° |
| 2026-04-09 12:18 | 47.88582 | 10.03247 | 5153 ft | 232 kts | 358° |
| 2026-04-09 12:19 | 47.90088 | 10.03970 | 5001 ft | 232 kts | 33° |
| 2026-04-09 12:19 | 47.91321 | 10.05540 | 4696 ft | 234 kts | 44° |
| 2026-04-09 12:19 | 47.92332 | 10.07424 | 4400 ft | 231 kts | 56° |
| 2026-04-09 12:19 | 47.93154 | 10.09472 | 4102 ft | 229 kts | 59° |
| 2026-04-09 12:20 | 47.93945 | 10.11512 | 3806 ft | 224 kts | 58° |
| 2026-04-09 12:20 | 47.94714 | 10.13453 | 3536 ft | 209 kts | 58° |
| 2026-04-09 12:20 | 47.95427 | 10.15253 | 3253 ft | 195 kts | 59° |
| 2026-04-09 12:20 | 47.96092 | 10.16931 | 2979 ft | 181 kts | 59° |
| 2026-04-09 12:21 | 47.96704 | 10.18476 | 2765 ft | 165 kts | 59° |
| 2026-04-09 12:21 | 47.97255 | 10.19866 | 2534 ft | 149 kts | 59° |
| 2026-04-09 12:21 | 47.97782 | 10.21214 | 2316 ft | 151 kts | 59° |
| 2026-04-09 12:21 | 47.98316 | 10.22535 | 2116 ft | 147 kts | 59° |
| 2026-04-09 12:22 | 47.98796 | 10.23748 | 2075 ft | 119 kts | 60° |
| 2026-04-09 12:22 | 47.99147 | 10.24622 | 2066 ft | 77 kts | 59° |
| 2026-04-09 12:22 | 47.99339 | 10.25105 | 2061 ft | 48 kts | 59° |
| 2026-04-09 12:22 | 47.99478 | 10.25449 | 2057 ft | 28 kts | 59° |
| 2026-04-09 12:23 | 47.99542 | 10.25569 | 2056 ft | 8 kts | 26° |
| 2026-04-09 12:23 | 47.99542 | 10.25629 | 2055 ft | 7 kts | 152° |
| 2026-04-09 12:23 | 47.99515 | 10.25580 | 2056 ft | 7 kts | 255° |
| 2026-04-09 12:23 | 47.99496 | 10.25505 | 2057 ft | 10 kts | 244° |
| 2026-04-09 12:24 | 47.99448 | 10.25374 | 2057 ft | 19 kts | 240° |
| 2026-04-09 12:24 | 47.99372 | 10.25179 | 2060 ft | 24 kts | 239° |
| 2026-04-09 12:24 | 47.99282 | 10.24953 | 2063 ft | 27 kts | 239° |
| 2026-04-09 12:24 | 47.99180 | 10.24700 | 2066 ft | 30 kts | 240° |
| 2026-04-09 12:25 | 47.99069 | 10.24418 | 2067 ft | 32 kts | 239° |
| 2026-04-09 12:25 | 47.98958 | 10.24138 | 2070 ft | 30 kts | 239° |
| 2026-04-09 12:25 | 47.98858 | 10.23889 | 2073 ft | 22 kts | 239° |
| 2026-04-09 12:25 | 47.98839 | 10.23773 | 2074 ft | 8 kts | 309° |
| 2026-04-09 12:26 | 47.98883 | 10.23728 | 2077 ft | 8 kts | 325° |
| 2026-04-09 12:26 | 47.98913 | 10.23644 | 2074 ft | 14 kts | 266° |
| 2026-04-09 12:26 | 47.98879 | 10.23495 | 2078 ft | 15 kts | 249° |
| 2026-04-09 12:26 | 47.98857 | 10.23406 | 2080 ft | 9 kts | 249° |
| 2026-04-09 12:27 | 47.98843 | 10.23325 | 2080 ft | 7 kts | 286° |
| 2026-04-09 12:27 | 47.98876 | 10.23307 | 2079 ft | 4 kts | 8° |
| 2026-04-09 12:27 | 47.98883 | 10.23317 | 2079 ft | 1 kts | 48° |
| 2026-04-09 12:27 | 47.98888 | 10.23326 | 2076 ft | 0 kts | 49° |